createdAt,value
2018-08-03T00:02:26.756Z,99.90
2018-08-03T00:04:55.282Z,99.90
2018-08-03T00:07:23.758Z,99.90
2018-08-03T00:09:52.278Z,99.90
2018-08-03T00:12:20.755Z,99.90
2018-08-03T00:14:49.273Z,99.90
2018-08-03T00:17:17.805Z,99.90
2018-08-03T00:19:46.310Z,99.90
2018-08-03T00:22:14.783Z,99.90
2018-08-03T00:24:43.301Z,99.90
2018-08-03T00:27:11.767Z,99.90
2018-08-03T00:29:40.271Z,99.90
2018-08-03T00:32:08.751Z,99.90
2018-08-03T00:34:37.276Z,99.90
2018-08-03T00:37:05.822Z,99.90
2018-08-03T00:39:34.619Z,99.90
2018-08-03T00:42:03.156Z,99.90
2018-08-03T00:44:31.658Z,99.90
2018-08-03T00:47:00.703Z,99.90
2018-08-03T00:49:29.191Z,99.90
2018-08-03T00:51:57.652Z,99.90
2018-08-03T00:54:26.138Z,99.90
2018-08-03T00:56:54.926Z,99.90
2018-08-03T00:59:23.424Z,99.90
2018-08-03T01:01:51.882Z,99.90
2018-08-03T01:04:20.380Z,99.90
2018-08-03T01:06:48.887Z,99.90
2018-08-03T01:11:45.522Z,99.90
2018-08-03T01:14:14.003Z,99.90
2018-08-03T01:16:43.170Z,99.90
2018-08-03T01:19:14.694Z,99.90
2018-08-03T01:21:44.447Z,99.90
2018-08-03T01:24:12.955Z,99.90
2018-08-03T01:29:10.209Z,99.90
2018-08-03T01:31:38.646Z,99.90
2018-08-03T01:34:07.464Z,99.90
2018-08-03T01:36:35.886Z,99.90
2018-08-03T01:39:06.795Z,99.90
2018-08-03T01:41:35.335Z,99.90
2018-08-03T01:44:03.819Z,99.90
2018-08-03T01:46:32.584Z,99.90
2018-08-03T01:49:01.018Z,99.90
2018-08-03T01:51:29.439Z,99.90
2018-08-03T01:53:57.880Z,99.90
2018-08-03T01:58:55.046Z,99.90
2018-08-03T02:01:23.519Z,99.90
2018-08-03T02:03:52.382Z,99.90
2018-08-03T02:06:20.849Z,99.90
2018-08-03T02:08:49.620Z,99.90
2018-08-03T02:11:18.070Z,99.90
2018-08-03T02:13:46.490Z,99.90
2018-08-03T02:16:14.950Z,99.90
2018-08-03T02:18:43.931Z,99.90
2018-08-03T02:21:12.642Z,99.90
2018-08-03T02:23:41.071Z,99.90
2018-08-03T02:26:09.546Z,99.90
2018-08-03T02:28:38.498Z,99.90
2018-08-03T02:31:06.939Z,99.90
2018-08-03T02:33:35.419Z,99.90
2018-08-03T02:36:04.503Z,99.90
2018-08-03T02:38:32.927Z,99.90
2018-08-03T02:41:01.416Z,99.90
2018-08-03T02:43:29.817Z,99.90
2018-08-03T02:45:58.249Z,99.90
2018-08-03T02:48:26.692Z,99.90
2018-08-03T02:50:55.139Z,99.90
2018-08-03T02:53:23.624Z,99.90
2018-08-03T02:55:52.058Z,99.90
2018-08-03T02:58:20.488Z,99.90
2018-08-03T03:00:48.938Z,99.90
2018-08-03T03:03:17.695Z,99.90
2018-08-03T03:05:46.214Z,99.90
2018-08-03T03:08:15.011Z,99.90
2018-08-03T03:10:43.534Z,99.90
2018-08-03T03:13:12.290Z,99.90
2018-08-03T03:15:40.857Z,99.90
2018-08-03T03:18:09.326Z,99.90
2018-08-03T03:20:37.842Z,99.90
2018-08-03T03:23:06.371Z,99.90
2018-08-03T03:25:34.864Z,99.90
2018-08-03T03:28:03.334Z,99.90
2018-08-03T03:30:31.890Z,99.90
2018-08-03T03:33:00.980Z,99.90
2018-08-03T03:35:29.462Z,99.90
2018-08-03T03:37:58.522Z,99.90
2018-08-03T03:40:27.003Z,99.90
2018-08-03T03:42:55.534Z,99.90
2018-08-03T03:45:24.330Z,99.90
2018-08-03T03:47:53.074Z,99.90
2018-08-03T03:50:21.563Z,99.90
2018-08-03T03:52:50.040Z,99.90
2018-08-03T03:55:18.522Z,99.90
2018-08-03T03:57:46.974Z,99.90
2018-08-03T04:00:15.486Z,99.90
2018-08-03T04:02:43.946Z,99.90
2018-08-03T04:05:12.719Z,99.90
2018-08-03T04:07:41.437Z,99.90
2018-08-03T04:10:10.483Z,99.90
2018-08-03T04:12:39.301Z,99.90
2018-08-03T04:15:07.791Z,99.90
2018-08-03T04:17:36.239Z,99.90
2018-08-03T04:20:04.995Z,99.90
2018-08-03T04:22:33.771Z,99.90
2018-08-03T04:25:02.258Z,99.90
2018-08-03T04:27:30.694Z,99.90
2018-08-03T04:29:59.127Z,99.90
2018-08-03T04:32:27.596Z,99.90
2018-08-03T04:34:56.332Z,99.90
2018-08-03T04:37:24.757Z,99.90
2018-08-03T04:39:53.191Z,99.90
2018-08-03T04:42:21.738Z,99.90
2018-08-03T04:44:50.405Z,99.90
2018-08-03T04:47:18.843Z,99.90
2018-08-03T04:49:47.253Z,99.90
2018-08-03T04:52:15.742Z,99.90
2018-08-03T04:54:44.214Z,99.90
2018-08-03T04:57:12.666Z,99.90
2018-08-03T04:59:41.082Z,99.90
2018-08-03T05:02:10.146Z,99.90
2018-08-03T05:04:38.685Z,99.90
2018-08-03T05:07:07.428Z,99.90
2018-08-03T05:09:36.113Z,99.90
2018-08-03T05:12:04.581Z,99.90
2018-08-03T05:14:33.281Z,99.90
2018-08-03T05:17:01.735Z,99.90
2018-08-03T05:19:30.156Z,99.90
2018-08-03T05:21:58.886Z,99.90
2018-08-03T05:24:27.307Z,99.90
2018-08-03T05:26:55.793Z,99.90
2018-08-03T05:29:24.454Z,99.90
2018-08-03T05:31:53.217Z,99.90
2018-08-03T05:34:21.718Z,99.90
2018-08-03T05:36:50.156Z,99.90
2018-08-03T05:39:18.623Z,99.90
2018-08-03T05:41:47.069Z,99.90
2018-08-03T05:44:16.246Z,99.90
2018-08-03T05:46:44.990Z,99.90
2018-08-03T05:49:13.661Z,99.90
2018-08-03T05:51:42.106Z,99.90
2018-08-03T05:54:10.565Z,99.90
2018-08-03T05:56:39.045Z,99.90
2018-08-03T05:59:07.758Z,99.90
2018-08-03T06:01:36.518Z,99.90
2018-08-03T06:04:05.035Z,99.90
2018-08-03T06:06:33.531Z,99.90
2018-08-03T06:09:01.966Z,99.90
2018-08-03T06:11:30.395Z,99.90
2018-08-03T06:13:58.830Z,99.90
2018-08-03T06:16:27.271Z,99.90
2018-08-03T06:18:55.970Z,99.90
2018-08-03T06:21:24.466Z,99.90
2018-08-03T06:23:52.922Z,99.90
2018-08-03T06:26:21.655Z,99.90
2018-08-03T06:28:50.117Z,99.90
2018-08-03T06:31:18.563Z,99.90
2018-08-03T06:33:47.089Z,99.90
2018-08-03T06:36:15.939Z,99.90
2018-08-03T06:38:44.362Z,99.90
2018-08-03T06:41:12.820Z,99.90
2018-08-03T06:43:41.302Z,99.90
2018-08-03T06:46:10.055Z,99.90
2018-08-03T06:48:38.770Z,99.90
2018-08-03T06:51:07.266Z,99.90
2018-08-03T06:56:03.863Z,99.90
2018-08-03T06:58:32.651Z,99.90
2018-08-03T07:01:01.098Z,99.90
2018-08-03T07:03:29.629Z,99.90
2018-08-03T07:05:58.119Z,99.90
2018-08-03T07:08:26.878Z,99.90
2018-08-03T07:10:55.323Z,99.90
2018-08-03T07:13:24.077Z,99.90
2018-08-03T07:15:52.525Z,99.90
2018-08-03T07:18:21.270Z,99.90
2018-08-03T07:20:50.020Z,99.90
2018-08-03T07:23:18.457Z,99.90
2018-08-03T07:25:46.922Z,99.90
2018-08-03T07:28:15.416Z,99.90
2018-08-03T07:30:43.871Z,99.90
2018-08-03T07:33:12.321Z,99.90
2018-08-03T07:35:40.826Z,99.90
2018-08-03T07:38:09.272Z,99.90
2018-08-03T07:40:37.734Z,99.90
2018-08-03T07:43:06.461Z,99.90
2018-08-03T07:45:35.523Z,99.90
2018-08-03T07:48:03.969Z,99.90
2018-08-03T07:50:32.914Z,99.90
2018-08-03T07:55:29.926Z,99.90
2018-08-03T07:57:58.358Z,99.90
2018-08-03T08:00:26.762Z,99.90
2018-08-03T08:02:55.513Z,99.90
2018-08-03T08:05:24.234Z,99.90
2018-08-03T08:07:52.686Z,99.90
2018-08-03T08:10:21.332Z,99.70
2018-08-03T08:12:50.069Z,99.80
2018-08-03T08:15:18.530Z,99.40
2018-08-03T08:17:46.975Z,98.30
2018-08-03T08:20:15.449Z,97.70
2018-08-03T08:22:43.949Z,97.70
2018-08-03T08:27:40.816Z,96.90
2018-08-03T08:30:09.448Z,97.00
2018-08-03T08:32:37.890Z,96.40
2018-08-03T08:35:06.900Z,96.50
2018-08-03T08:37:35.887Z,95.40
2018-08-03T08:40:04.909Z,96.10
2018-08-03T08:42:33.666Z,95.70
2018-08-03T08:45:02.082Z,96.10
2018-08-03T08:47:31.136Z,95.80
2018-08-03T08:49:59.709Z,95.40
2018-08-03T08:52:28.809Z,94.70
2018-08-03T08:54:57.498Z,94.90
2018-08-03T08:57:26.547Z,94.30
2018-08-03T08:59:54.980Z,93.80
2018-08-03T09:02:23.406Z,94.00
2018-08-03T09:04:51.841Z,94.40
2018-08-03T09:07:20.301Z,94.00
2018-08-03T09:09:48.732Z,93.20
2018-08-03T09:12:17.219Z,92.40
2018-08-03T09:14:45.657Z,92.90
2018-08-03T09:17:14.214Z,91.90
2018-08-03T09:19:42.682Z,91.70
2018-08-03T09:22:11.427Z,90.80
2018-08-03T09:24:39.918Z,91.10
2018-08-03T09:27:08.978Z,90.60
2018-08-03T09:29:37.412Z,88.70
2018-08-03T09:32:06.210Z,87.10
2018-08-03T09:34:34.658Z,86.80
2018-08-03T09:37:03.098Z,87.80
2018-08-03T09:39:31.831Z,89.90
2018-08-03T09:42:00.306Z,86.30
2018-08-03T09:44:28.760Z,86.70
2018-08-03T09:46:57.484Z,85.30
2018-08-03T09:49:26.072Z,85.70
2018-08-03T09:51:54.529Z,85.80
2018-08-03T09:54:23.049Z,84.40
2018-08-03T09:56:51.474Z,82.50
2018-08-03T09:59:19.911Z,83.30
2018-08-03T10:01:48.352Z,83.00
2018-08-03T10:04:17.450Z,82.90
2018-08-03T10:06:45.918Z,82.50
2018-08-03T10:09:14.406Z,80.60
2018-08-03T10:11:42.894Z,78.70
2018-08-03T10:14:11.631Z,77.60
2018-08-03T10:16:40.098Z,78.60
2018-08-03T10:19:08.942Z,76.90
2018-08-03T10:21:37.445Z,77.10
2018-08-03T10:24:05.942Z,76.10
2018-08-03T10:26:34.676Z,75.80
2018-08-03T10:29:03.567Z,76.20
2018-08-03T10:31:32.340Z,74.40
2018-08-03T10:34:00.848Z,74.80
2018-08-03T10:36:29.345Z,74.10
2018-08-03T10:38:57.847Z,74.00
2018-08-03T10:41:26.576Z,71.90
2018-08-03T10:43:55.330Z,70.90
2018-08-03T10:46:23.845Z,70.80
2018-08-03T10:48:52.670Z,71.30
2018-08-03T10:51:21.758Z,70.80
2018-08-03T10:53:50.510Z,68.40
2018-08-03T10:56:19.231Z,69.10
2018-08-03T10:58:47.722Z,68.40
2018-08-03T11:01:16.268Z,67.70
2018-08-03T11:03:44.742Z,69.00
2018-08-03T11:06:13.530Z,67.60
2018-08-03T11:08:42.296Z,71.10
2018-08-03T11:11:11.044Z,68.90
2018-08-03T11:13:39.539Z,69.80
2018-08-03T11:18:36.123Z,69.20
2018-08-03T11:21:04.889Z,73.00
2018-08-03T11:23:33.651Z,69.90
2018-08-03T11:26:02.399Z,67.10
2018-08-03T11:28:30.846Z,65.90
2018-08-03T11:30:59.572Z,62.90
2018-08-03T11:33:28.021Z,66.80
2018-08-03T11:35:56.434Z,64.00
2018-08-03T11:38:24.896Z,62.80
2018-08-03T11:40:53.321Z,61.90
2018-08-03T11:43:22.288Z,58.40
2018-08-03T11:45:51.151Z,58.20
2018-08-03T11:48:19.630Z,58.40
2018-08-03T11:50:48.375Z,57.80
2018-08-03T11:53:16.831Z,59.30
2018-08-03T11:55:45.574Z,58.60
2018-08-03T11:58:13.995Z,59.50
2018-08-03T12:00:43.044Z,58.50
2018-08-03T12:03:11.453Z,58.20
2018-08-03T12:05:39.925Z,57.00
2018-08-03T12:08:08.416Z,57.00
2018-08-03T12:10:37.198Z,57.60
2018-08-03T12:13:06.214Z,56.40
2018-08-03T12:15:34.677Z,54.10
2018-08-03T12:18:03.355Z,54.10
2018-08-03T12:20:31.807Z,52.40
2018-08-03T12:23:00.791Z,54.00
2018-08-03T12:25:29.261Z,52.40
2018-08-03T12:27:57.970Z,52.20
2018-08-03T12:30:26.422Z,51.10
2018-08-03T12:32:54.866Z,50.40
2018-08-03T12:35:23.310Z,50.40
2018-08-03T12:37:51.998Z,50.00
2018-08-03T12:40:20.477Z,50.90
2018-08-03T12:42:49.186Z,50.00
2018-08-03T12:45:17.975Z,50.40
2018-08-03T12:47:46.408Z,50.40
2018-08-03T12:50:14.881Z,49.70
2018-08-03T12:52:43.357Z,47.60
2018-08-03T12:55:12.026Z,48.90
2018-08-03T12:57:40.452Z,48.50
2018-08-03T13:00:09.734Z,49.00
2018-08-03T13:02:38.762Z,48.70
2018-08-03T13:05:07.514Z,48.40
2018-08-03T13:07:36.079Z,47.20
2018-08-03T13:10:05.038Z,46.40
2018-08-03T13:12:33.490Z,47.40
2018-08-03T13:15:02.236Z,47.10
2018-08-03T13:17:31.307Z,45.90
2018-08-03T13:20:00.199Z,46.20
2018-08-03T13:22:28.970Z,47.60
2018-08-03T13:24:57.470Z,48.90
2018-08-03T13:27:25.956Z,48.90
2018-08-03T13:29:54.786Z,49.70
2018-08-03T13:32:23.854Z,50.00
2018-08-03T13:34:52.395Z,48.50
2018-08-03T13:37:20.907Z,48.30
2018-08-03T13:39:49.998Z,51.20
2018-08-03T13:42:18.482Z,46.20
2018-08-03T13:44:47.216Z,47.00
2018-08-03T13:47:15.979Z,47.00
2018-08-03T13:49:44.503Z,46.70
2018-08-03T13:52:12.975Z,46.90
2018-08-03T13:54:41.487Z,47.50
2018-08-03T13:57:09.951Z,45.70
2018-08-03T13:59:38.780Z,45.20
2018-08-03T14:02:15.024Z,46.50
2018-08-03T14:04:43.558Z,44.90
2018-08-03T14:07:12.091Z,44.40
2018-08-03T14:09:40.853Z,44.30
2018-08-03T14:12:09.722Z,44.50
2018-08-03T14:14:38.747Z,44.10
2018-08-03T14:17:07.400Z,44.30
2018-08-03T14:19:36.263Z,44.50
2018-08-03T14:22:05.400Z,44.60
2018-08-03T14:24:34.596Z,44.80
2018-08-03T14:27:03.738Z,44.10
2018-08-03T14:29:32.577Z,43.80
2018-08-03T14:32:01.239Z,45.30
2018-08-03T14:34:29.746Z,44.50
2018-08-03T14:36:58.264Z,45.60
2018-08-03T14:39:27.287Z,45.80
2018-08-03T14:41:56.152Z,44.70
2018-08-03T14:44:24.914Z,45.30
2018-08-03T14:46:53.698Z,44.00
2018-08-03T14:49:22.165Z,44.00
2018-08-03T14:51:50.689Z,44.10
2018-08-03T14:54:19.866Z,43.80
2018-08-03T14:56:48.405Z,43.60
2018-08-03T14:59:17.115Z,42.40
2018-08-03T15:01:46.007Z,42.60
2018-08-03T15:04:14.792Z,42.50
2018-08-03T15:06:43.654Z,43.20
2018-08-03T15:09:13.225Z,42.80
2018-08-03T15:11:41.769Z,43.00
2018-08-03T15:14:10.306Z,43.40
2018-08-03T15:16:39.135Z,42.70
2018-08-03T15:19:08.323Z,42.90
2018-08-03T15:21:37.114Z,43.60
2018-08-03T15:24:05.895Z,42.50
2018-08-03T15:26:34.460Z,43.20
2018-08-03T15:29:03.268Z,42.80
2018-08-03T15:31:31.730Z,43.10
2018-08-03T15:34:00.461Z,41.80
2018-08-03T15:36:29.514Z,42.30
2018-08-03T15:38:57.985Z,41.50
2018-08-03T15:41:26.900Z,41.40
2018-08-03T15:43:55.407Z,39.50
2018-08-03T15:46:23.924Z,39.80
2018-08-03T15:48:52.424Z,39.50
2018-08-03T15:51:21.211Z,40.10
2018-08-03T15:53:49.936Z,38.60
2018-08-03T15:56:18.433Z,38.40
2018-08-03T15:58:47.377Z,38.80
2018-08-03T16:03:44.260Z,37.80
2018-08-03T16:06:12.776Z,37.80
2018-08-03T16:08:41.201Z,37.70
2018-08-03T16:11:09.947Z,37.80
2018-08-03T16:13:38.372Z,38.30
2018-08-03T16:16:06.834Z,38.20
2018-08-03T16:18:35.248Z,38.50
2018-08-03T16:21:03.699Z,39.20
2018-08-03T16:23:32.454Z,39.00
2018-08-03T16:26:01.047Z,40.50
2018-08-03T16:28:29.604Z,41.70
2018-08-03T16:30:58.331Z,42.10
2018-08-03T16:33:26.777Z,42.10
2018-08-03T16:35:55.519Z,42.10
2018-08-03T16:38:24.055Z,41.60
2018-08-03T16:40:52.575Z,41.90
2018-08-03T16:43:21.052Z,42.20
2018-08-03T16:45:49.539Z,43.10
2018-08-03T16:48:17.995Z,42.90
2018-08-03T16:50:46.746Z,43.20
2018-08-03T16:53:15.500Z,43.30
2018-08-03T16:55:43.947Z,43.00
2018-08-03T16:58:12.440Z,43.20
2018-08-03T17:00:41.171Z,43.90
2018-08-03T17:03:09.909Z,44.10
2018-08-03T17:08:07.082Z,44.00
2018-08-03T17:10:35.796Z,44.40
2018-08-03T17:13:04.271Z,44.50
2018-08-03T17:15:32.728Z,44.10
2018-08-03T17:18:01.183Z,43.90
2018-08-03T17:20:29.626Z,44.10
2018-08-03T17:22:58.107Z,44.40
2018-08-03T17:25:26.551Z,45.10
2018-08-03T17:27:54.998Z,45.50
2018-08-03T17:30:23.431Z,45.10
2018-08-03T17:32:52.148Z,45.30
2018-08-03T17:35:23.757Z,45.10
2018-08-03T17:37:52.504Z,45.70
2018-08-03T17:40:21.269Z,45.90
2018-08-03T17:42:49.782Z,46.20
2018-08-03T17:45:18.228Z,46.10
2018-08-03T17:47:46.712Z,45.80
2018-08-03T17:50:15.163Z,46.00
2018-08-03T17:52:43.592Z,46.20
2018-08-03T17:55:12.305Z,46.10
2018-08-03T17:57:40.744Z,46.30
2018-08-03T18:00:09.186Z,46.40
2018-08-03T18:02:37.868Z,46.30
2018-08-03T18:05:06.759Z,46.20
2018-08-03T18:07:35.239Z,46.80
2018-08-03T18:10:04.006Z,46.90
2018-08-03T18:12:32.818Z,47.30
2018-08-03T18:15:01.305Z,47.30
2018-08-03T18:19:58.857Z,47.70
2018-08-03T18:22:27.343Z,48.00
2018-08-03T18:24:55.817Z,48.00
2018-08-03T18:27:24.572Z,47.50
2018-08-03T18:29:53.011Z,47.70
2018-08-03T18:32:21.534Z,47.70
2018-08-03T18:34:49.959Z,47.90
2018-08-03T18:37:19.054Z,48.30
2018-08-03T18:39:47.478Z,48.60
2018-08-03T18:42:15.918Z,48.70
2018-08-03T18:44:44.629Z,49.00
2018-08-03T18:47:13.135Z,48.60
2018-08-03T18:49:41.554Z,49.10
2018-08-03T18:52:10.048Z,48.90
2018-08-03T18:54:38.499Z,49.10
2018-08-03T18:59:36.020Z,49.40
2018-08-03T19:02:04.539Z,48.90
2018-08-03T19:04:33.217Z,49.50
2018-08-03T19:07:02.019Z,50.00
2018-08-03T19:11:58.651Z,51.30
2018-08-03T19:14:27.104Z,51.90
2018-08-03T19:16:55.902Z,52.40
2018-08-03T19:19:24.610Z,52.40
2018-08-03T19:24:21.567Z,53.30
2018-08-03T19:26:50.019Z,53.70
2018-08-03T19:29:18.475Z,54.40
2018-08-03T19:31:46.917Z,54.70
2018-08-03T19:34:15.361Z,54.60
2018-08-03T19:36:43.829Z,54.20
2018-08-03T19:39:12.551Z,54.00
2018-08-03T19:44:09.218Z,54.70
2018-08-03T19:46:37.883Z,55.20
2018-08-03T19:51:34.588Z,56.80
2018-08-03T19:54:03.066Z,56.70
2018-08-03T19:56:31.519Z,57.80
2018-08-03T19:59:00.096Z,57.20
2018-08-03T20:01:28.456Z,56.50
2018-08-03T20:03:57.210Z,56.60
2018-08-03T20:06:25.968Z,56.60
2018-08-03T20:08:54.490Z,56.70
2018-08-03T20:11:23.330Z,56.80
2018-08-03T20:13:51.888Z,56.80
2018-08-03T20:16:20.411Z,57.20
2018-08-03T20:18:49.330Z,57.60
2018-08-03T20:21:17.827Z,58.20
2018-08-03T20:23:46.740Z,58.40
2018-08-03T20:26:15.231Z,58.60
2018-08-03T20:28:43.758Z,59.10
2018-08-03T20:33:40.465Z,58.30
2018-08-03T20:36:08.951Z,58.50
2018-08-03T20:38:37.495Z,58.10
2018-08-03T20:41:06.027Z,58.60
2018-08-03T20:43:34.781Z,59.20
2018-08-03T20:46:03.298Z,58.30
2018-08-03T20:48:31.793Z,58.00
2018-08-03T20:51:01.039Z,58.70
2018-08-03T20:53:36.378Z,59.40
2018-08-03T20:56:05.206Z,60.60
2018-08-03T20:58:34.015Z,59.80
2018-08-03T21:01:02.872Z,60.60
2018-08-03T21:03:31.686Z,61.10
2018-08-03T21:06:00.208Z,61.80
2018-08-03T21:08:28.714Z,62.00
2018-08-03T21:10:57.467Z,61.50
2018-08-03T21:13:26.224Z,61.90
2018-08-03T21:15:54.675Z,61.40
2018-08-03T21:18:23.179Z,61.60
2018-08-03T21:20:51.654Z,62.50
2018-08-03T21:23:20.187Z,62.70
2018-08-03T21:25:48.674Z,62.20
2018-08-03T21:28:17.166Z,61.70
2018-08-03T21:30:45.667Z,61.60
2018-08-03T21:35:42.918Z,63.40
2018-08-03T21:38:11.817Z,63.10
2018-08-03T21:43:08.853Z,62.50
2018-08-03T21:45:37.592Z,62.90
2018-08-03T21:48:06.345Z,63.40
2018-08-03T21:50:35.102Z,63.50
2018-08-03T21:53:03.596Z,63.80
2018-08-03T21:55:32.057Z,64.00
2018-08-03T21:58:00.810Z,64.40
2018-08-03T22:00:29.298Z,64.60
2018-08-03T22:02:57.809Z,64.70
2018-08-03T22:05:26.307Z,65.20
2018-08-03T22:07:55.298Z,65.70
2018-08-03T22:10:23.838Z,65.60
2018-08-03T22:12:52.330Z,65.90
2018-08-03T22:15:20.798Z,66.20
2018-08-03T22:17:49.317Z,66.50
2018-08-03T22:20:17.926Z,66.50
2018-08-03T22:22:46.385Z,66.30
2018-08-03T22:25:14.863Z,66.20
2018-08-03T22:27:43.317Z,66.30
2018-08-03T22:30:12.161Z,66.30
2018-08-03T22:32:40.695Z,66.70
2018-08-03T22:35:09.415Z,67.10
2018-08-03T22:37:38.183Z,67.20
2018-08-03T22:40:06.765Z,67.30
2018-08-03T22:42:35.617Z,67.30
2018-08-03T22:45:04.252Z,66.60
2018-08-03T22:47:32.977Z,66.10
2018-08-03T22:50:01.459Z,65.90
2018-08-03T22:52:30.299Z,65.50
2018-08-03T22:55:00.218Z,65.10
2018-08-03T22:57:28.686Z,65.90
2018-08-03T22:59:57.173Z,65.30
2018-08-03T23:02:25.963Z,65.30
2018-08-03T23:04:54.486Z,65.50
2018-08-03T23:07:22.963Z,65.50
2018-08-03T23:09:52.103Z,65.40
2018-08-03T23:12:20.570Z,65.00
2018-08-03T23:14:49.059Z,65.90
2018-08-03T23:17:17.547Z,65.90
2018-08-03T23:19:46.045Z,66.10
2018-08-03T23:22:14.506Z,65.60
2018-08-03T23:24:43.298Z,65.70
2018-08-03T23:27:11.763Z,65.60
2018-08-03T23:29:40.268Z,65.90
2018-08-03T23:32:09.023Z,66.30
2018-08-03T23:34:38.027Z,67.10
2018-08-03T23:37:07.119Z,66.50
2018-08-03T23:39:35.651Z,66.80
2018-08-03T23:42:04.131Z,67.10
2018-08-03T23:44:32.637Z,67.30
2018-08-03T23:47:01.102Z,67.50
2018-08-03T23:49:29.612Z,67.40
2018-08-03T23:51:58.342Z,67.80
2018-08-03T23:54:27.693Z,68.00
2018-08-03T23:56:56.486Z,68.60
2018-08-03T23:59:25.337Z,68.80
